The Vly, New York
Current Conditions -  °F | °C
As of 11:53 AM on Thursday 30 Oct 2014 (Local Time) from KPOU Reporting Station
Broken Clouds Broken Clouds  
Wind Chill: 12°   Ceiling: 5500
Heat Index: 12°   Visibility: 10mi
Dew Point:   Wind: 5mph
Humidity: 59%   Direction: 260°W
Pressure: 29.98"   Gusts: NA
Location:  41.8715°N, 74.1782°W
Report Text: KPOU 301553Z 26004KT 10SM FEW029 FEW035 BKN055 12/04 A2998 RMK AO2 SLP151 T01170039
Loading
Personal Weather Stations






























Interactive Weather Map
Tropical Storm Tracking
New forecast layout! Learn more

10-Day Weather Forecast

Advertisements
Track Severe Weather on mobile